createdAt,value
2022-07-26T00:01:48.657Z,16.08
2022-07-26T00:04:16.235Z,15.80
2022-07-26T00:06:43.770Z,15.38
2022-07-26T00:09:11.596Z,15.80
2022-07-26T00:11:39.223Z,16.00
2022-07-26T00:14:07.808Z,18.83
2022-07-26T00:16:35.795Z,20.08
2022-07-26T00:19:03.443Z,17.45
2022-07-26T00:21:31.352Z,20.25
2022-07-26T00:23:58.829Z,17.60
2022-07-26T00:26:26.457Z,19.25
2022-07-26T00:28:53.894Z,14.82
2022-07-26T00:31:21.571Z,13.93
2022-07-26T00:33:49.108Z,14.25
2022-07-26T00:36:16.748Z,14.15
2022-07-26T00:38:44.272Z,17.67
2022-07-26T00:41:11.811Z,17.48
2022-07-26T00:43:45.359Z,20.27
2022-07-26T00:46:12.936Z,13.27
2022-07-26T00:48:40.464Z,12.60
2022-07-26T00:51:07.990Z,13.10
2022-07-26T00:53:35.448Z,12.35
2022-07-26T00:56:02.976Z,13.00
2022-07-26T00:58:30.436Z,15.15
2022-07-26T01:00:58.041Z,13.68
2022-07-26T01:03:30.384Z,13.02
2022-07-26T01:06:04.288Z,12.85
2022-07-26T01:08:31.805Z,13.50
2022-07-26T01:10:59.681Z,15.20
2022-07-26T01:13:29.677Z,15.90
2022-07-26T01:15:59.583Z,15.50
2022-07-26T01:18:27.069Z,18.52
2022-07-26T01:20:55.034Z,15.57
2022-07-26T01:23:22.513Z,17.88
2022-07-26T01:25:50.108Z,24.38
2022-07-26T01:28:20.420Z,15.23
2022-07-26T01:30:49.035Z,14.48
2022-07-26T01:33:17.173Z,14.02
2022-07-26T01:35:44.650Z,14.50
2022-07-26T01:38:12.591Z,14.68
2022-07-26T01:40:40.038Z,15.13
2022-07-26T01:43:07.499Z,17.38
2022-07-26T01:45:35.117Z,15.32
2022-07-26T01:48:02.676Z,15.70
2022-07-26T01:50:30.138Z,20.83
2022-07-26T01:52:57.633Z,15.35
2022-07-26T01:55:25.042Z,16.42
2022-07-26T01:57:53.618Z,14.40
2022-07-26T02:00:21.130Z,14.63
2022-07-26T02:02:48.698Z,15.20
2022-07-26T02:05:16.250Z,15.43
2022-07-26T02:07:44.582Z,14.80
2022-07-26T02:10:13.060Z,14.98
2022-07-26T02:12:42.204Z,14.48
2022-07-26T02:15:12.571Z,14.98
2022-07-26T02:17:40.023Z,16.25
2022-07-26T02:20:08.167Z,16.02
2022-07-26T02:22:36.313Z,14.60
2022-07-26T02:25:05.462Z,15.98
2022-07-26T02:27:33.501Z,16.42
2022-07-26T02:30:02.004Z,15.30
2022-07-26T02:32:29.469Z,13.68
2022-07-26T02:34:56.963Z,15.35
2022-07-26T02:37:24.531Z,14.10
2022-07-26T02:39:51.972Z,13.75
2022-07-26T02:42:19.538Z,15.07
2022-07-26T02:44:47.077Z,14.48
2022-07-26T02:47:14.592Z,14.73
2022-07-26T02:49:42.085Z,13.60
2022-07-26T02:52:09.538Z,14.07
2022-07-26T02:54:37.054Z,13.90
2022-07-26T02:57:04.605Z,12.90
2022-07-26T02:59:32.113Z,14.20
2022-07-26T03:01:59.657Z,13.10
2022-07-26T03:04:27.263Z,13.50
2022-07-26T03:06:54.695Z,13.88
2022-07-26T03:09:22.199Z,14.82
2022-07-26T03:11:49.701Z,14.65
2022-07-26T03:14:17.216Z,14.73
2022-07-26T03:16:44.795Z,18.65
2022-07-26T03:19:12.226Z,14.00
2022-07-26T03:21:39.734Z,19.63
2022-07-26T03:24:07.660Z,15.32
2022-07-26T03:26:35.317Z,17.20
2022-07-26T03:29:02.760Z,20.13
2022-07-26T03:31:30.542Z,15.65
2022-07-26T03:34:03.960Z,20.00
2022-07-26T03:36:31.676Z,20.50
2022-07-26T03:38:59.261Z,15.70
2022-07-26T03:41:26.772Z,14.90
2022-07-26T03:43:54.223Z,17.60
2022-07-26T03:46:21.779Z,15.40
2022-07-26T03:48:49.299Z,14.77
2022-07-26T03:51:16.889Z,15.02
2022-07-26T03:53:44.321Z,16.60
2022-07-26T03:56:31.949Z,25.02
2022-07-26T03:59:00.767Z,22.38
2022-07-26T04:01:28.327Z,15.20
2022-07-26T04:03:55.864Z,16.27
2022-07-26T04:06:23.676Z,16.42
2022-07-26T04:08:51.444Z,17.92
2022-07-26T04:11:18.886Z,16.77
2022-07-26T04:13:46.379Z,17.40
2022-07-26T04:16:14.463Z,17.88
2022-07-26T04:18:42.627Z,16.73
2022-07-26T04:21:10.283Z,18.35
2022-07-26T04:23:37.775Z,18.52
2022-07-26T04:26:05.748Z,18.45
2022-07-26T04:28:33.463Z,18.27
2022-07-26T04:31:01.531Z,17.58
2022-07-26T04:33:29.141Z,16.67
2022-07-26T04:35:56.679Z,16.55
2022-07-26T04:38:24.102Z,15.48
2022-07-26T04:40:51.986Z,15.25
2022-07-26T04:43:19.746Z,14.90
2022-07-26T04:45:47.394Z,14.27
2022-07-26T04:48:15.808Z,15.38
2022-07-26T04:50:43.890Z,13.98
2022-07-26T04:53:11.442Z,14.70
2022-07-26T04:55:39.092Z,13.93
2022-07-26T04:58:07.052Z,14.10
2022-07-26T05:00:46.982Z,13.65
2022-07-26T05:03:25.111Z,12.85
2022-07-26T05:05:53.505Z,13.48
2022-07-26T05:08:20.991Z,13.93
2022-07-26T05:10:54.572Z,12.43
2022-07-26T05:13:29.392Z,11.57
2022-07-26T05:15:59.517Z,10.98
2022-07-26T05:18:27.641Z,10.60
2022-07-26T05:20:57.520Z,11.70
2022-07-26T05:23:25.005Z,11.02
2022-07-26T05:25:52.663Z,10.73
2022-07-26T05:28:20.130Z,10.85
2022-07-26T05:30:47.656Z,10.40
2022-07-26T05:33:16.716Z,10.15
2022-07-26T05:35:44.335Z,10.90
2022-07-26T05:38:12.077Z,10.73
2022-07-26T05:40:39.607Z,11.32
2022-07-26T05:43:07.485Z,11.75
2022-07-26T05:45:34.971Z,10.55
2022-07-26T05:48:02.457Z,11.55
2022-07-26T05:50:30.027Z,10.35
2022-07-26T05:52:57.542Z,11.30
2022-07-26T05:55:25.087Z,11.25
2022-07-26T05:57:52.651Z,11.02
2022-07-26T06:00:20.944Z,11.07
2022-07-26T06:02:48.483Z,10.80
2022-07-26T06:05:16.241Z,9.30
2022-07-26T06:07:44.187Z,9.82
2022-07-26T06:10:11.796Z,9.30
2022-07-26T06:12:39.278Z,10.43
2022-07-26T06:15:14.716Z,13.05
2022-07-26T06:17:43.545Z,10.75
2022-07-26T06:20:11.389Z,12.88
2022-07-26T06:22:38.881Z,10.85
2022-07-26T06:25:06.642Z,10.77
2022-07-26T06:27:34.131Z,12.30
2022-07-26T06:30:01.552Z,11.05
2022-07-26T06:32:29.051Z,13.32
2022-07-26T06:34:56.516Z,11.35
2022-07-26T06:37:24.091Z,11.13
2022-07-26T06:39:51.544Z,11.65
2022-07-26T06:42:19.064Z,14.10
2022-07-26T06:44:46.654Z,12.32
2022-07-26T06:47:14.169Z,14.05
2022-07-26T06:49:41.613Z,13.20
2022-07-26T06:52:09.091Z,13.15
2022-07-26T06:54:36.565Z,11.15
2022-07-26T06:57:04.193Z,10.57
2022-07-26T06:59:31.619Z,10.88
2022-07-26T07:02:00.509Z,11.05
2022-07-26T07:04:31.764Z,10.95
2022-07-26T07:07:05.224Z,10.63
2022-07-26T07:09:33.912Z,9.98
2022-07-26T07:12:09.710Z,9.60
2022-07-26T07:14:38.650Z,9.73
2022-07-26T07:17:11.255Z,10.40
2022-07-26T07:19:41.569Z,9.90
2022-07-26T07:22:12.266Z,9.88
2022-07-26T07:24:40.551Z,9.27
2022-07-26T07:27:08.161Z,10.98
2022-07-26T07:29:35.939Z,8.25
2022-07-26T07:32:03.722Z,7.80
2022-07-26T07:34:31.575Z,7.07
2022-07-26T07:36:59.187Z,8.23
2022-07-26T07:39:38.512Z,8.00
2022-07-26T07:42:06.422Z,7.13
2022-07-26T07:44:34.074Z,6.57
2022-07-26T07:47:01.704Z,7.63
2022-07-26T07:49:29.419Z,8.27
2022-07-26T07:51:57.038Z,7.35
2022-07-26T07:54:24.585Z,7.43
2022-07-26T07:56:53.188Z,9.07
2022-07-26T07:59:20.653Z,10.15
2022-07-26T08:01:50.507Z,7.85
2022-07-26T08:04:18.188Z,9.40
2022-07-26T08:06:50.432Z,8.05
2022-07-26T08:11:50.705Z,6.57
2022-07-26T08:14:19.339Z,11.23
2022-07-26T08:16:47.113Z,6.40
2022-07-26T08:19:15.709Z,6.25
2022-07-26T08:21:46.084Z,6.20
2022-07-26T08:24:14.546Z,9.75
2022-07-26T08:26:42.043Z,10.25
2022-07-26T08:29:09.697Z,6.25
2022-07-26T08:31:37.432Z,5.93
2022-07-26T08:34:05.006Z,5.97
2022-07-26T08:36:33.189Z,7.38
2022-07-26T08:39:01.499Z,6.60
2022-07-26T08:41:29.188Z,5.82
2022-07-26T08:44:05.053Z,5.38
2022-07-26T08:46:35.451Z,5.68
2022-07-26T08:49:03.052Z,6.60
2022-07-26T08:51:31.669Z,7.53
2022-07-26T08:54:05.188Z,8.48
2022-07-26T08:56:34.048Z,8.40
2022-07-26T08:59:03.687Z,6.15
2022-07-26T09:01:31.327Z,6.55
2022-07-26T09:04:30.405Z,6.13
2022-07-26T09:07:00.130Z,6.18
2022-07-26T09:09:28.110Z,6.13
2022-07-26T09:11:56.493Z,5.95
2022-07-26T09:14:24.180Z,6.20
2022-07-26T09:17:01.022Z,6.28
2022-07-26T09:19:29.332Z,5.45
2022-07-26T09:21:58.188Z,6.60
2022-07-26T09:24:32.810Z,5.97
2022-07-26T09:27:01.066Z,6.38
2022-07-26T09:29:29.943Z,7.93
2022-07-26T09:32:19.415Z,7.85
2022-07-26T09:34:58.801Z,8.98
2022-07-26T09:37:36.402Z,9.52
2022-07-26T09:40:06.388Z,8.07
2022-07-26T09:42:33.934Z,9.15
2022-07-26T09:45:01.806Z,7.95
2022-07-26T09:47:39.274Z,7.85
2022-07-26T09:50:17.284Z,9.00
2022-07-26T09:53:03.810Z,9.20
2022-07-26T09:55:40.900Z,6.90
2022-07-26T09:58:15.863Z,7.88
2022-07-26T10:00:44.280Z,7.90
2022-07-26T10:03:12.312Z,7.53
2022-07-26T10:05:39.920Z,7.82
2022-07-26T10:08:07.990Z,6.80
2022-07-26T10:10:47.746Z,7.80
2022-07-26T10:13:15.460Z,8.02
2022-07-26T10:15:47.481Z,9.10
2022-07-26T10:18:34.320Z,10.50
2022-07-26T10:21:19.399Z,13.98
2022-07-26T10:23:47.816Z,7.88
2022-07-26T10:26:33.893Z,8.93
2022-07-26T10:29:21.883Z,7.50
2022-07-26T10:31:53.228Z,7.30
2022-07-26T10:34:37.625Z,7.85
2022-07-26T10:37:10.394Z,7.90
2022-07-26T10:39:38.803Z,7.13
2022-07-26T10:42:07.757Z,10.63
2022-07-26T10:44:36.631Z,18.52
2022-07-26T10:47:04.127Z,14.73
2022-07-26T10:49:38.023Z,9.88
2022-07-26T10:52:10.352Z,10.00
2022-07-26T10:54:56.412Z,10.75
2022-07-26T10:57:44.162Z,8.68
2022-07-26T11:00:17.183Z,8.00
2022-07-26T11:02:45.495Z,8.60
2022-07-26T11:05:17.110Z,7.93
2022-07-26T11:07:49.699Z,7.45
2022-07-26T11:10:17.218Z,7.82
2022-07-26T11:12:44.747Z,7.30
2022-07-26T11:15:19.035Z,7.13
2022-07-26T11:17:46.860Z,6.35
2022-07-26T11:20:29.256Z,6.53
2022-07-26T11:22:57.391Z,6.90
2022-07-26T11:25:24.856Z,7.38
2022-07-26T11:28:01.536Z,11.15
2022-07-26T11:30:29.917Z,9.18
2022-07-26T11:33:00.465Z,8.05
2022-07-26T11:35:29.702Z,7.20
2022-07-26T11:38:07.830Z,7.75
2022-07-26T11:40:48.817Z,7.18
2022-07-26T11:43:16.364Z,7.50
2022-07-26T11:45:43.874Z,7.63
2022-07-26T11:48:11.439Z,8.05
2022-07-26T11:50:38.912Z,7.80
2022-07-26T11:53:21.176Z,7.40
2022-07-26T11:55:48.711Z,7.85
2022-07-26T11:58:16.294Z,7.45
2022-07-26T12:00:43.926Z,7.28
2022-07-26T12:03:11.419Z,7.00
2022-07-26T12:05:38.966Z,8.20
2022-07-26T12:08:07.425Z,7.45
2022-07-26T12:10:42.890Z,7.22
2022-07-26T12:13:12.126Z,6.63
2022-07-26T12:15:46.786Z,7.80
2022-07-26T12:18:30.370Z,6.97
2022-07-26T12:21:07.126Z,7.68
2022-07-26T12:23:52.561Z,6.97
2022-07-26T12:26:24.487Z,6.53
2022-07-26T12:28:52.216Z,7.00
2022-07-26T12:31:34.253Z,6.55
2022-07-26T12:34:02.389Z,7.03
2022-07-26T12:36:30.482Z,6.40
2022-07-26T12:38:59.386Z,6.45
2022-07-26T12:41:33.041Z,6.40
2022-07-26T12:46:28.058Z,6.88
2022-07-26T12:49:00.151Z,6.75
2022-07-26T12:51:28.241Z,6.55
2022-07-26T12:53:55.700Z,6.45
2022-07-26T12:56:23.239Z,6.57
2022-07-26T12:58:58.281Z,6.35
2022-07-26T13:01:25.948Z,6.13
2022-07-26T13:03:53.663Z,6.68
2022-07-26T13:06:21.166Z,6.50
2022-07-26T13:08:48.846Z,6.55
2022-07-26T13:11:16.493Z,7.05
2022-07-26T13:13:43.984Z,7.22
2022-07-26T13:16:12.502Z,7.45
2022-07-26T13:18:40.277Z,7.82
2022-07-26T13:21:07.978Z,7.32
2022-07-26T13:23:35.846Z,7.45
2022-07-26T13:26:04.223Z,7.25
2022-07-26T13:28:31.915Z,7.38
2022-07-26T13:30:59.550Z,6.63
2022-07-26T13:33:27.029Z,7.25
2022-07-26T13:35:56.514Z,7.15
2022-07-26T13:38:24.109Z,7.07
2022-07-26T13:40:51.645Z,7.72
2022-07-26T13:43:19.069Z,7.55
2022-07-26T13:45:46.610Z,7.25
2022-07-26T13:48:14.170Z,6.78
2022-07-26T13:50:41.786Z,7.05
2022-07-26T13:53:09.244Z,7.55
2022-07-26T13:55:36.827Z,7.55
2022-07-26T13:58:09.672Z,7.45
2022-07-26T14:00:38.785Z,6.03
2022-07-26T14:03:11.959Z,7.25
2022-07-26T14:05:47.178Z,5.82
2022-07-26T14:08:17.027Z,6.25
2022-07-26T14:10:44.817Z,6.80
2022-07-26T14:13:15.054Z,6.40
2022-07-26T14:15:42.599Z,6.82
2022-07-26T14:18:15.627Z,6.00
2022-07-26T14:20:43.377Z,7.30
2022-07-26T14:23:10.912Z,6.60
2022-07-26T14:25:41.136Z,7.07
2022-07-26T14:28:11.591Z,6.68
2022-07-26T14:30:42.289Z,6.88
2022-07-26T14:33:13.060Z,6.10
2022-07-26T14:35:41.971Z,5.70
2022-07-26T14:38:11.349Z,7.03
2022-07-26T14:40:41.708Z,6.20
2022-07-26T14:43:09.632Z,6.30
2022-07-26T14:45:37.317Z,7.85
2022-07-26T14:48:07.933Z,5.75
2022-07-26T14:51:06.975Z,6.00
2022-07-26T14:53:24.954Z,7.72
2022-07-26T14:55:53.012Z,6.53
2022-07-26T14:58:20.957Z,6.78
2022-07-26T15:00:48.754Z,5.70
2022-07-26T15:03:16.302Z,6.05
2022-07-26T15:05:43.910Z,5.70
2022-07-26T15:08:13.966Z,6.60
2022-07-26T15:10:41.876Z,6.75
2022-07-26T15:13:09.463Z,5.97
2022-07-26T15:15:37.025Z,5.93
2022-07-26T15:18:04.555Z,5.70
2022-07-26T15:20:32.217Z,5.53
2022-07-26T15:23:00.402Z,5.88
2022-07-26T15:25:28.081Z,5.32
2022-07-26T15:27:55.559Z,5.13
2022-07-26T15:30:23.969Z,5.60
2022-07-26T15:32:54.585Z,5.57
2022-07-26T15:35:22.106Z,6.45
2022-07-26T15:37:49.641Z,5.70
2022-07-26T15:40:17.784Z,4.85
2022-07-26T15:42:46.544Z,5.63
2022-07-26T15:45:14.166Z,5.70
2022-07-26T15:48:06.894Z,5.30
2022-07-26T15:50:29.876Z,5.10
2022-07-26T15:52:57.359Z,5.38
2022-07-26T15:55:24.882Z,5.63
2022-07-26T15:57:55.910Z,6.32
2022-07-26T16:00:23.380Z,5.18
2022-07-26T16:02:50.992Z,4.82
2022-07-26T16:05:19.027Z,5.07
2022-07-26T16:07:47.900Z,4.80
2022-07-26T16:10:16.566Z,4.72
2022-07-26T16:12:44.104Z,4.50
2022-07-26T16:15:12.061Z,5.28
2022-07-26T16:17:39.722Z,6.53
2022-07-26T16:20:07.556Z,5.07
2022-07-26T16:22:35.324Z,4.70
2022-07-26T16:25:05.927Z,4.53
2022-07-26T16:27:33.491Z,4.70
2022-07-26T16:30:01.051Z,4.60
2022-07-26T16:32:28.578Z,4.90
2022-07-26T16:34:56.096Z,5.13
2022-07-26T16:37:23.580Z,4.88
2022-07-26T16:39:51.184Z,4.78
2022-07-26T16:42:18.716Z,4.75
2022-07-26T16:44:46.256Z,5.25
2022-07-26T16:47:14.042Z,4.88
2022-07-26T16:49:42.764Z,5.75
2022-07-26T16:52:10.359Z,6.30
2022-07-26T16:54:37.989Z,5.22
2022-07-26T16:57:06.771Z,5.43
2022-07-26T16:59:34.369Z,5.85
2022-07-26T17:02:03.087Z,6.60
2022-07-26T17:04:30.860Z,6.65
2022-07-26T17:07:23.491Z,6.00
2022-07-26T17:09:46.176Z,5.57
2022-07-26T17:12:13.640Z,5.50
2022-07-26T17:14:41.241Z,5.25
2022-07-26T17:17:08.908Z,7.55
2022-07-26T17:19:36.351Z,6.35
2022-07-26T17:22:03.936Z,9.85
2022-07-26T17:24:31.459Z,7.65
2022-07-26T17:26:59.040Z,9.10
2022-07-26T17:29:26.484Z,8.20
2022-07-26T17:31:55.042Z,7.95
2022-07-26T17:34:22.619Z,8.50
2022-07-26T17:36:57.235Z,8.95
2022-07-26T17:39:50.788Z,13.45
2022-07-26T17:42:14.877Z,9.65
2022-07-26T17:44:43.075Z,14.70
2022-07-26T17:47:27.843Z,20.90
2022-07-26T17:49:57.088Z,23.38
2022-07-26T17:52:26.639Z,25.90
2022-07-26T17:54:55.807Z,26.25
2022-07-26T17:57:23.417Z,23.45
2022-07-26T17:59:50.866Z,22.50
2022-07-26T18:02:18.445Z,24.48
2022-07-26T18:04:46.042Z,25.08
2022-07-26T18:07:13.871Z,25.90
2022-07-26T18:09:41.405Z,24.52
2022-07-26T18:12:09.327Z,22.55
2022-07-26T18:14:38.746Z,18.33
2022-07-26T18:17:06.249Z,18.80
2022-07-26T18:19:33.889Z,19.10
2022-07-26T18:22:05.731Z,17.85
2022-07-26T18:24:33.692Z,17.13
2022-07-26T18:27:01.195Z,12.93
2022-07-26T18:29:28.628Z,12.13
2022-07-26T18:32:00.265Z,11.45
2022-07-26T18:34:27.878Z,10.40
2022-07-26T18:36:55.377Z,10.43
2022-07-26T18:39:23.072Z,11.70
2022-07-26T18:41:50.563Z,10.38
2022-07-26T18:44:18.028Z,10.65
2022-07-26T18:46:45.614Z,10.02
2022-07-26T18:49:16.144Z,9.70
2022-07-26T18:51:48.429Z,9.68
2022-07-26T18:54:16.730Z,8.48
2022-07-26T18:56:44.562Z,6.60
2022-07-26T18:59:12.448Z,7.78
2022-07-26T19:01:40.272Z,7.82
2022-07-26T19:04:07.854Z,8.38
2022-07-26T19:06:35.872Z,8.40
2022-07-26T19:09:03.531Z,7.75
2022-07-26T19:11:33.035Z,10.38
2022-07-26T19:14:05.119Z,8.82
2022-07-26T19:16:32.794Z,9.55
2022-07-26T19:19:00.346Z,8.23
2022-07-26T19:21:27.967Z,10.95
2022-07-26T19:23:55.453Z,9.05
2022-07-26T19:26:24.043Z,9.95
2022-07-26T19:28:51.569Z,8.95
2022-07-26T19:31:19.138Z,8.95
2022-07-26T19:33:46.697Z,8.85
2022-07-26T19:36:18.095Z,9.18
2022-07-26T19:38:53.472Z,8.73
2022-07-26T19:41:20.969Z,9.50
2022-07-26T19:43:48.575Z,10.05
2022-07-26T19:46:16.066Z,8.60
2022-07-26T19:48:43.759Z,9.52
2022-07-26T19:51:11.488Z,8.52
2022-07-26T19:53:38.932Z,9.65
2022-07-26T19:56:07.461Z,12.18
2022-07-26T19:58:34.914Z,13.68
2022-07-26T20:01:02.730Z,11.70
2022-07-26T20:03:30.336Z,12.30
2022-07-26T20:05:58.328Z,12.00
2022-07-26T20:08:26.010Z,8.90
2022-07-26T20:10:53.734Z,10.77
2022-07-26T20:13:21.248Z,10.65
2022-07-26T20:15:48.767Z,8.57
2022-07-26T20:18:18.373Z,9.45
2022-07-26T20:20:45.874Z,9.13
2022-07-26T20:23:13.298Z,9.20
2022-07-26T20:25:40.850Z,8.98
2022-07-26T20:28:08.293Z,7.85
2022-07-26T20:30:35.928Z,8.70
2022-07-26T20:33:03.536Z,9.02
2022-07-26T20:35:31.509Z,8.65
2022-07-26T20:37:59.149Z,8.25
2022-07-26T20:40:28.731Z,9.35
2022-07-26T20:42:56.435Z,8.90
2022-07-26T20:45:24.083Z,8.77
2022-07-26T20:47:55.395Z,10.38
2022-07-26T20:50:23.385Z,8.57
2022-07-26T20:52:51.547Z,9.20
2022-07-26T20:55:19.214Z,9.85
2022-07-26T20:57:47.143Z,8.63
2022-07-26T21:00:15.101Z,11.50
2022-07-26T21:02:42.632Z,8.95
2022-07-26T21:05:11.106Z,9.98
2022-07-26T21:07:58.344Z,11.07
2022-07-26T21:10:26.106Z,11.63
2022-07-26T21:12:54.694Z,8.30
2022-07-26T21:15:22.226Z,11.13
2022-07-26T21:17:49.652Z,10.65
2022-07-26T21:20:19.517Z,8.80
2022-07-26T21:22:47.019Z,8.82
2022-07-26T21:25:14.490Z,8.40
2022-07-26T21:27:42.273Z,8.73
2022-07-26T21:30:10.051Z,8.65
2022-07-26T21:32:37.463Z,8.75
2022-07-26T21:35:05.214Z,8.30
2022-07-26T21:37:33.006Z,8.82
2022-07-26T21:40:00.933Z,8.50
2022-07-26T21:42:28.724Z,8.18
2022-07-26T21:44:56.161Z,8.60
2022-07-26T21:47:23.716Z,8.30
2022-07-26T21:49:51.159Z,8.63
2022-07-26T21:52:18.611Z,8.85
2022-07-26T21:54:46.035Z,8.50
2022-07-26T21:57:13.659Z,8.77
2022-07-26T21:59:41.084Z,9.50
2022-07-26T22:02:08.677Z,9.82
2022-07-26T22:04:36.292Z,10.20
2022-07-26T22:07:03.905Z,10.13
2022-07-26T22:09:34.634Z,9.90
2022-07-26T22:12:02.080Z,9.32
2022-07-26T22:14:29.643Z,9.68
2022-07-26T22:16:57.174Z,10.00
2022-07-26T22:19:24.744Z,9.95
2022-07-26T22:21:52.196Z,10.15
2022-07-26T22:24:19.807Z,9.95
2022-07-26T22:26:47.339Z,9.95
2022-07-26T22:29:14.987Z,9.90
2022-07-26T22:31:42.524Z,10.10
2022-07-26T22:34:10.060Z,9.52
2022-07-26T22:36:40.014Z,9.63
2022-07-26T22:39:12.980Z,11.13
2022-07-26T22:42:04.946Z,9.35
2022-07-26T22:44:28.395Z,10.07
2022-07-26T22:46:55.896Z,9.88
2022-07-26T22:49:23.548Z,9.65
2022-07-26T22:51:51.067Z,9.68
2022-07-26T22:54:18.552Z,9.75
2022-07-26T22:56:46.668Z,9.45
2022-07-26T22:59:14.646Z,9.80
2022-07-26T23:01:42.479Z,9.30
2022-07-26T23:04:10.120Z,10.02
2022-07-26T23:06:38.203Z,9.93
2022-07-26T23:09:06.018Z,10.23
2022-07-26T23:11:33.476Z,10.18
2022-07-26T23:14:01.502Z,10.63
2022-07-26T23:16:29.035Z,10.48
2022-07-26T23:18:56.669Z,9.63
2022-07-26T23:21:24.191Z,10.43
2022-07-26T23:23:51.687Z,11.07
2022-07-26T23:26:19.180Z,10.10
2022-07-26T23:28:46.678Z,11.38
2022-07-26T23:31:14.406Z,11.00
2022-07-26T23:33:51.510Z,10.02
2022-07-26T23:36:30.486Z,10.05
2022-07-26T23:38:59.182Z,10.23
2022-07-26T23:41:27.411Z,10.55
2022-07-26T23:43:55.361Z,10.77
2022-07-26T23:46:23.290Z,10.43
2022-07-26T23:48:51.215Z,10.63
2022-07-26T23:51:19.594Z,10.55
2022-07-26T23:53:47.552Z,10.70
2022-07-26T23:56:15.512Z,10.27
2022-07-26T23:58:43.071Z,10.52
